AirNav   Pilot Hours Calculator
 
 1165 users online  

94K Cassville Municipal Airport
Cassville, Missouri, USA

GOING TO CASSVILLE?


FAA INFORMATION EFFECTIVE 20 JUNE 2019

Location

FAA Identifier: 94K
Lat/Long: 36-41-50.7000N / 093-54-01.9000W
36-41.845000N / 093-54.031667W
36.6974167 / -93.9005278
(estimated)
Elevation: 1482.6 ft. / 451.9 m (surveyed)
Variation: 02E (2010)
From city: 2 miles NW of CASSVILLE, MO
Time zone: UTC -5 (UTC -6 during Standard Time)
Zip code: 65625

Airport Operations

Airport use: Open to the public
Control tower: no
ARTCC: KANSAS CITY CENTER
FSS: COLUMBIA FLIGHT SERVICE STATION
NOTAMs facility: COU (NOTAM-D service available)
Attendance: UNATNDD
Wind indicator: lighted
Segmented circle: yes
Lights: ACTVT MIRL RY 09/27 - CTAF. PAPI RYS 09 & 27 OPERATES 24 HRS.
Beacon: white-green (lighted land airport)
Operates sunset to sunrise.

Airport Communications

CTAF: 122.9
SPRINGFIELD APPROACH: 124.95
SPRINGFIELD DEPARTURE: 124.95
WX AWOS-3 at HFJ (14 nm NW): 118.275 (417-476-2613)

Nearby radio navigation aids

VOR radial/distance  VOR name  Freq  Var
EOSr102/27.2NEOSHO VOR/DME117.3007E
RZCr017/29.1RAZORBACK VORTAC116.4004E

Airport Services

Fuel available: 100LL
FOR FUEL CALL PHONE NR ON TERMINAL BLDG.
Parking: tiedowns
Airframe service: NONE
Powerplant service: NONE
Bottled oxygen: NONE
Bulk oxygen: NONE

Runway Information

Runway 9/27

Dimensions: 3599 x 60 ft. / 1097 x 18 m
Surface: asphalt, in good condition
Weight bearing capacity: 
Single wheel: 8.0
Runway edge lights: medium intensity
RUNWAY 9  RUNWAY 27
Latitude: 36-41.842640N36-41.845980N
Longitude: 093-54.399787W093-53.663258W
Elevation: 1479.4 ft.1471.5 ft.
Traffic pattern: leftleft
Runway heading: 088 magnetic, 090 true268 magnetic, 270 true
Markings: nonprecision, in good conditionnonprecision, in good condition
Visual slope indicator: 2-light PAPI on left (3.00 degrees glide path)2-light PAPI on left (3.00 degrees glide path)
Touchdown point: yes, no lightsyes, no lights

Airport Ownership and Management from official FAA records

Ownership: Publicly-owned
Owner: CITY OF CASSVILLE
300 MAIN ST
CASSVILLE, MO 65625
Phone 417-847-4441
Manager: JUSTIN HENSON
300 S MAIN
CASSVILLE, MO 65625
Phone 417-847-4441
EVENING PHONE # 417-342-2814

Airport Operational Statistics

Aircraft based on the field: 13
Single engine airplanes: 13
    
Aircraft operations: avg 49/week *
74% transient general aviation
24% local general aviation
2% air taxi
* for 12-month period ending 31 December 2015

Additional Remarks

100LL SELF SVC AVBL WITH CREDIT CARD ONLY.
FOR CD CTC KANSAS CITY ARTCC AT 913-254-8508.

Instrument Procedures

NOTE: All procedures below are presented as PDF files. If you need a reader for these files, you should download the free Adobe Reader.

NOT FOR NAVIGATION. Please procure official charts for flight.
FAA instrument procedures published for use from 20 June 2019 at 0901Z to 19 July 2019 at 0900Z.

 
IAPs - Instrument Approach Procedures
RNAV (GPS) RWY 09   download (184KB)
RNAV (GPS) RWY 27   download (173KB)
VOR RWY 09   download (184KB)
NOTE: Special Take-Off Minimums/Departure Procedures apply   download (166KB)

Other nearby airports with instrument procedures:

KHFJ - Monett Regional Airport (14 nm NW)
2H2 - Jerry Sumners Sr. Aurora Municipal Airport (19 nm NE)
KROG - Rogers Executive Airport - Carter Field (22 nm SW)
4M1 - Carroll County Airport (23 nm SE)
KFWB - Branson West Municipal Airport - Emerson Field (24 nm E)
 
Loc | Ops | Rwys | IFR | FBO | Links
Com | Nav | Svcs | Stats | Notes

Kansas City Aviation Department
 
Area around 94K (Cassville Municipal Airport)
 
Road maps at: MapQuest Bing Google
 
Aerial photo
WARNING: Photo may not be current or correct
Aerial photo of 94K (Cassville Municipal Airport)
Photo taken 20-May-2006

Do you have a better or more recent aerial photo of Cassville Municipal Airport that you would like to share? If so, please send us your photo.

 
Sectional chart

 
Airport distance calculator
Flying to Cassville Municipal Airport? Find the distance to fly.

From to 94K

Sunrise and sunset
Times for 15-Jul-2019
 Local
(UTC-5)
 Zulu
(UTC)
Morning civil twilight05:4010:40
Sunrise06:1011:10
Sunset20:3301:33
Evening civil twilight21:0302:03

Current date and time
Zulu (UTC)  15-Jul-2019 23:53:37
Local (UTC-5)  15-Jul-2019 18:53:37
 
METAR
KHFJ 
14nm NW 
152335Z AUTO 03004KT 10SM SCT018 OVC048 25/21 A2986 RMK AO2
KROG 
22nm SW 
152258Z 36005KT 10SM FEW028 OVC035 24/21 A2987 RMK AO2 RAB14E26 SLP103 T02440211 PNO $
KFWB 
24nm E 
152335Z AUTO 00000KT 10SM BKN016 BKN031 BKN038 24/23 A2987 RMK AO2
KEOS 
25nm W 
SuperAWOS
152315Z AUTO 00000KT 10SM 24/23 A2989
KVBT 
26nm SW 
152307Z AUTO 02005KT 10SM SCT022 OVC039 26/21 A2988 RMK AO2
TAF
KROG 
22nm SW 
152007Z 1520/1618 32008KT P6SM VCSH BKN035 TEMPO 1520/1524 3SM SHRA OVC025 FM160800 VRB02KT 5SM BR OVC007 FM161400 22004KT P6SM BKN015
NOTAMs
Click for the latest NOTAMs
NOTAMs are issued by the DoD/FAA and will open in a separate window not controlled by AirNav.

 

 
 

FBO, Fuel Providers, and Aircraft Ground Support

  
 Business Name 
 
 Contact 
 
 Services / Description 
 
Fuel Prices
 
Comments
  
City of Cassville 417-847-4441
no information available

If you are affiliated with City of Cassville and would like to show here your services, contact info, web link, logo, and more, click here
no prices available
 
   1 read write
Update Fuel Prices
 

Would you like to see your business listed on this page?

 If your business provides an interesting product or service to pilots, flight crews, aircraft, or users of the Cassville Municipal Airport, you should consider listing it here.  To start the listing process, click on the button below
 
Add a business
 

Other Pages about Cassville Municipal Airport

Update a link
 
Copyright © AirNav, LLC. All rights reserved. Privacy Policy  Contact